sensor_id;sensor_type;location;lat;lon;timestamp;P1;durP1;ratioP1;P2;durP2;ratioP2
58412;SDS011;44209;52.952;6.790;2023-03-01T00:01:28;34.10;;;24.13;;
58412;SDS011;44209;52.952;6.790;2023-03-01T00:03:55;32.03;;;22.50;;
58412;SDS011;44209;52.952;6.790;2023-03-01T00:06:21;39.47;;;25.83;;
58412;SDS011;44209;52.952;6.790;2023-03-01T00:08:48;35.80;;;24.33;;
58412;SDS011;44209;52.952;6.790;2023-03-01T00:13:42;37.63;;;24.93;;
58412;SDS011;44209;52.952;6.790;2023-03-01T00:16:15;34.67;;;24.27;;
58412;SDS011;44209;52.952;6.790;2023-03-01T00:18:49;33.70;;;22.67;;
58412;SDS011;44209;52.952;6.790;2023-03-01T00:21:16;38.93;;;24.67;;
58412;SDS011;44209;52.952;6.790;2023-03-01T00:23:42;31.53;;;23.83;;
58412;SDS011;44209;52.952;6.790;2023-03-01T00:26:12;33.07;;;22.80;;
58412;SDS011;44209;52.952;6.790;2023-03-01T00:28:39;33.47;;;23.97;;
58412;SDS011;44209;52.952;6.790;2023-03-01T00:31:05;34.80;;;24.60;;
58412;SDS011;44209;52.952;6.790;2023-03-01T00:33:32;33.27;;;22.70;;
58412;SDS011;44209;52.952;6.790;2023-03-01T00:35:58;34.63;;;24.60;;
58412;SDS011;44209;52.952;6.790;2023-03-01T00:38:24;37.17;;;24.83;;
58412;SDS011;44209;52.952;6.790;2023-03-01T00:40:50;38.40;;;24.10;;
58412;SDS011;44209;52.952;6.790;2023-03-01T00:43:15;36.47;;;23.50;;
58412;SDS011;44209;52.952;6.790;2023-03-01T00:45:41;34.23;;;23.77;;
58412;SDS011;44209;52.952;6.790;2023-03-01T00:48:07;33.40;;;23.07;;
58412;SDS011;44209;52.952;6.790;2023-03-01T00:50:32;36.53;;;23.77;;
58412;SDS011;44209;52.952;6.790;2023-03-01T00:52:58;32.93;;;23.17;;
58412;SDS011;44209;52.952;6.790;2023-03-01T00:55:24;35.90;;;23.03;;
58412;SDS011;44209;52.952;6.790;2023-03-01T00:57:53;33.67;;;22.67;;
58412;SDS011;44209;52.952;6.790;2023-03-01T01:00:18;30.90;;;21.10;;
58412;SDS011;44209;52.952;6.790;2023-03-01T01:02:45;34.83;;;22.60;;
58412;SDS011;44209;52.952;6.790;2023-03-01T01:05:11;33.43;;;23.60;;
58412;SDS011;44209;52.952;6.790;2023-03-01T01:07:37;34.30;;;23.13;;
58412;SDS011;44209;52.952;6.790;2023-03-01T01:10:03;33.73;;;22.30;;
58412;SDS011;44209;52.952;6.790;2023-03-01T01:12:29;32.23;;;23.13;;
58412;SDS011;44209;52.952;6.790;2023-03-01T01:14:55;34.00;;;23.23;;
58412;SDS011;44209;52.952;6.790;2023-03-01T01:17:20;33.87;;;23.60;;
58412;SDS011;44209;52.952;6.790;2023-03-01T01:19:46;34.43;;;22.57;;
58412;SDS011;44209;52.952;6.790;2023-03-01T01:22:12;34.37;;;22.37;;
58412;SDS011;44209;52.952;6.790;2023-03-01T01:24:37;32.17;;;21.60;;
58412;SDS011;44209;52.952;6.790;2023-03-01T01:27:03;33.00;;;23.33;;
58412;SDS011;44209;52.952;6.790;2023-03-01T01:29:29;31.33;;;21.80;;
58412;SDS011;44209;52.952;6.790;2023-03-01T01:31:54;30.47;;;22.07;;
58412;SDS011;44209;52.952;6.790;2023-03-01T01:34:20;31.97;;;22.80;;
58412;SDS011;44209;52.952;6.790;2023-03-01T01:36:50;30.90;;;22.13;;
58412;SDS011;44209;52.952;6.790;2023-03-01T01:39:19;32.25;;;22.13;;
58412;SDS011;44209;52.952;6.790;2023-03-01T01:41:45;35.87;;;24.07;;
58412;SDS011;44209;52.952;6.790;2023-03-01T01:46:44;33.63;;;22.10;;
58412;SDS011;44209;52.952;6.790;2023-03-01T01:52:04;32.83;;;22.43;;
58412;SDS011;44209;52.952;6.790;2023-03-01T01:57:22;32.30;;;21.97;;
58412;SDS011;44209;52.952;6.790;2023-03-01T01:59:54;31.73;;;22.63;;
58412;SDS011;44209;52.952;6.790;2023-03-01T02:02:24;35.88;;;23.42;;
58412;SDS011;44209;52.952;6.790;2023-03-01T02:04:52;34.33;;;23.17;;
58412;SDS011;44209;52.952;6.790;2023-03-01T02:07:26;32.57;;;22.10;;
58412;SDS011;44209;52.952;6.790;2023-03-01T02:09:52;30.97;;;22.20;;
58412;SDS011;44209;52.952;6.790;2023-03-01T02:12:19;35.97;;;22.13;;
58412;SDS011;44209;52.952;6.790;2023-03-01T02:14:48;34.23;;;22.20;;
58412;SDS011;44209;52.952;6.790;2023-03-01T02:17:14;32.73;;;22.07;;
58412;SDS011;44209;52.952;6.790;2023-03-01T02:22:35;32.27;;;22.10;;
58412;SDS011;44209;52.952;6.790;2023-03-01T02:27:37;32.37;;;21.27;;
58412;SDS011;44209;52.952;6.790;2023-03-01T02:30:08;33.30;;;21.43;;
58412;SDS011;44209;52.952;6.790;2023-03-01T02:32:38;33.50;;;21.87;;
58412;SDS011;44209;52.952;6.790;2023-03-01T02:35:12;34.53;;;22.47;;
58412;SDS011;44209;52.952;6.790;2023-03-01T02:37:40;30.97;;;21.90;;
58412;SDS011;44209;52.952;6.790;2023-03-01T02:40:08;31.63;;;21.47;;
58412;SDS011;44209;52.952;6.790;2023-03-01T02:42:40;34.47;;;21.33;;
58412;SDS011;44209;52.952;6.790;2023-03-01T02:45:18;34.97;;;21.57;;
58412;SDS011;44209;52.952;6.790;2023-03-01T02:47:44;31.43;;;21.23;;
58412;SDS011;44209;52.952;6.790;2023-03-01T02:50:25;29.93;;;20.57;;
58412;SDS011;44209;52.952;6.790;2023-03-01T02:53:48;31.67;;;22.33;;
58412;SDS011;44209;52.952;6.790;2023-03-01T02:56:20;31.47;;;21.70;;
58412;SDS011;44209;52.952;6.790;2023-03-01T02:58:46;27.53;;;20.93;;
58412;SDS011;44209;52.952;6.790;2023-03-01T03:01:16;31.97;;;21.87;;
58412;SDS011;44209;52.952;6.790;2023-03-01T03:03:43;32.63;;;21.30;;
58412;SDS011;44209;52.952;6.790;2023-03-01T03:06:08;29.40;;;20.80;;
58412;SDS011;44209;52.952;6.790;2023-03-01T03:08:34;33.77;;;22.63;;
58412;SDS011;44209;52.952;6.790;2023-03-01T03:11:00;30.60;;;21.27;;
58412;SDS011;44209;52.952;6.790;2023-03-01T03:13:26;32.43;;;22.20;;
58412;SDS011;44209;52.952;6.790;2023-03-01T03:15:54;32.93;;;20.87;;
58412;SDS011;44209;52.952;6.790;2023-03-01T03:18:21;32.07;;;22.43;;
58412;SDS011;44209;52.952;6.790;2023-03-01T03:20:47;33.10;;;22.03;;
58412;SDS011;44209;52.952;6.790;2023-03-01T03:23:17;32.83;;;22.03;;
58412;SDS011;44209;52.952;6.790;2023-03-01T03:25:44;34.27;;;21.80;;
58412;SDS011;44209;52.952;6.790;2023-03-01T03:28:14;29.03;;;21.50;;
58412;SDS011;44209;52.952;6.790;2023-03-01T03:30:41;30.70;;;20.83;;
58412;SDS011;44209;52.952;6.790;2023-03-01T03:33:07;34.17;;;21.57;;
58412;SDS011;44209;52.952;6.790;2023-03-01T03:35:38;33.93;;;21.67;;
58412;SDS011;44209;52.952;6.790;2023-03-01T03:38:08;35.20;;;22.93;;
58412;SDS011;44209;52.952;6.790;2023-03-01T03:40:41;34.73;;;23.73;;
58412;SDS011;44209;52.952;6.790;2023-03-01T03:43:13;37.50;;;22.02;;
58412;SDS011;44209;52.952;6.790;2023-03-01T03:45:46;33.70;;;22.40;;
58412;SDS011;44209;52.952;6.790;2023-03-01T03:48:13;32.63;;;21.83;;
58412;SDS011;44209;52.952;6.790;2023-03-01T03:50:40;32.73;;;22.53;;
58412;SDS011;44209;52.952;6.790;2023-03-01T03:53:07;35.73;;;23.00;;
58412;SDS011;44209;52.952;6.790;2023-03-01T03:55:34;36.93;;;22.33;;
58412;SDS011;44209;52.952;6.790;2023-03-01T03:58:04;34.07;;;21.50;;
58412;SDS011;44209;52.952;6.790;2023-03-01T04:00:35;31.60;;;21.93;;
58412;SDS011;44209;52.952;6.790;2023-03-01T04:03:03;32.20;;;21.53;;
58412;SDS011;44209;52.952;6.790;2023-03-01T04:05:29;32.50;;;22.00;;
58412;SDS011;44209;52.952;6.790;2023-03-01T04:07:55;30.93;;;22.03;;
58412;SDS011;44209;52.952;6.790;2023-03-01T04:10:28;30.17;;;21.00;;
58412;SDS011;44209;52.952;6.790;2023-03-01T04:12:55;30.67;;;21.83;;
58412;SDS011;44209;52.952;6.790;2023-03-01T04:15:22;35.03;;;22.20;;
58412;SDS011;44209;52.952;6.790;2023-03-01T04:17:49;30.70;;;20.87;;
58412;SDS011;44209;52.952;6.790;2023-03-01T04:20:21;33.40;;;22.03;;
58412;SDS011;44209;52.952;6.790;2023-03-01T04:22:59;31.37;;;21.97;;
58412;SDS011;44209;52.952;6.790;2023-03-01T04:28:21;35.60;;;23.80;;
58412;SDS011;44209;52.952;6.790;2023-03-01T04:30:55;37.07;;;23.63;;
58412;SDS011;44209;52.952;6.790;2023-03-01T04:33:22;35.40;;;23.53;;
58412;SDS011;44209;52.952;6.790;2023-03-01T04:35:49;32.67;;;21.33;;
58412;SDS011;44209;52.952;6.790;2023-03-01T04:38:16;34.17;;;21.77;;
58412;SDS011;44209;52.952;6.790;2023-03-01T04:40:42;35.20;;;22.20;;
58412;SDS011;44209;52.952;6.790;2023-03-01T04:43:08;36.87;;;23.40;;
58412;SDS011;44209;52.952;6.790;2023-03-01T04:45:38;35.47;;;22.67;;
58412;SDS011;44209;52.952;6.790;2023-03-01T04:48:03;35.07;;;21.33;;
58412;SDS011;44209;52.952;6.790;2023-03-01T04:50:30;35.67;;;21.97;;
58412;SDS011;44209;52.952;6.790;2023-03-01T04:52:56;38.23;;;24.20;;
58412;SDS011;44209;52.952;6.790;2023-03-01T04:55:27;34.50;;;22.17;;
58412;SDS011;44209;52.952;6.790;2023-03-01T04:57:54;35.03;;;23.00;;
58412;SDS011;44209;52.952;6.790;2023-03-01T05:00:20;35.03;;;23.17;;
58412;SDS011;44209;52.952;6.790;2023-03-01T05:02:51;33.70;;;22.57;;
58412;SDS011;44209;52.952;6.790;2023-03-01T05:07:46;36.77;;;22.30;;
58412;SDS011;44209;52.952;6.790;2023-03-01T05:10:11;33.53;;;21.47;;
58412;SDS011;44209;52.952;6.790;2023-03-01T05:12:40;41.70;;;25.00;;
58412;SDS011;44209;52.952;6.790;2023-03-01T05:15:06;36.07;;;23.03;;
58412;SDS011;44209;52.952;6.790;2023-03-01T05:17:32;36.13;;;22.80;;
58412;SDS011;44209;52.952;6.790;2023-03-01T05:19:59;41.87;;;26.00;;
58412;SDS011;44209;52.952;6.790;2023-03-01T05:22:26;39.87;;;24.37;;
58412;SDS011;44209;52.952;6.790;2023-03-01T05:24:51;37.17;;;23.63;;
58412;SDS011;44209;52.952;6.790;2023-03-01T05:27:19;39.93;;;24.97;;
58412;SDS011;44209;52.952;6.790;2023-03-01T05:29:47;43.83;;;25.50;;
58412;SDS011;44209;52.952;6.790;2023-03-01T05:32:13;42.90;;;26.07;;
58412;SDS011;44209;52.952;6.790;2023-03-01T05:34:40;38.53;;;23.77;;
58412;SDS011;44209;52.952;6.790;2023-03-01T05:37:06;39.47;;;23.67;;
58412;SDS011;44209;52.952;6.790;2023-03-01T05:39:33;41.70;;;24.23;;
58412;SDS011;44209;52.952;6.790;2023-03-01T05:41:59;38.77;;;24.73;;
58412;SDS011;44209;52.952;6.790;2023-03-01T05:44:26;46.80;;;26.23;;
58412;SDS011;44209;52.952;6.790;2023-03-01T05:46:53;37.37;;;24.07;;
58412;SDS011;44209;52.952;6.790;2023-03-01T05:49:20;39.40;;;24.63;;
58412;SDS011;44209;52.952;6.790;2023-03-01T05:51:49;38.20;;;24.73;;
58412;SDS011;44209;52.952;6.790;2023-03-01T05:54:16;41.23;;;25.47;;
58412;SDS011;44209;52.952;6.790;2023-03-01T05:56:42;40.33;;;24.30;;
58412;SDS011;44209;52.952;6.790;2023-03-01T05:59:08;40.07;;;24.97;;
58412;SDS011;44209;52.952;6.790;2023-03-01T06:01:34;40.83;;;25.23;;
58412;SDS011;44209;52.952;6.790;2023-03-01T06:04:01;40.03;;;26.07;;
58412;SDS011;44209;52.952;6.790;2023-03-01T06:06:28;40.67;;;25.80;;
58412;SDS011;44209;52.952;6.790;2023-03-01T06:08:53;41.00;;;25.63;;
58412;SDS011;44209;52.952;6.790;2023-03-01T06:11:19;39.10;;;25.70;;
58412;SDS011;44209;52.952;6.790;2023-03-01T06:13:46;43.23;;;26.73;;
58412;SDS011;44209;52.952;6.790;2023-03-01T06:16:12;40.47;;;25.60;;
58412;SDS011;44209;52.952;6.790;2023-03-01T06:18:39;41.13;;;26.33;;
58412;SDS011;44209;52.952;6.790;2023-03-01T06:21:05;41.80;;;26.30;;
58412;SDS011;44209;52.952;6.790;2023-03-01T06:23:32;40.30;;;25.40;;
58412;SDS011;44209;52.952;6.790;2023-03-01T06:25:58;40.60;;;26.80;;
58412;SDS011;44209;52.952;6.790;2023-03-01T06:28:24;42.33;;;26.03;;
58412;SDS011;44209;52.952;6.790;2023-03-01T06:30:49;44.27;;;26.93;;
58412;SDS011;44209;52.952;6.790;2023-03-01T06:33:16;44.70;;;26.87;;
58412;SDS011;44209;52.952;6.790;2023-03-01T06:35:47;47.17;;;27.80;;
58412;SDS011;44209;52.952;6.790;2023-03-01T06:38:13;43.03;;;27.27;;
58412;SDS011;44209;52.952;6.790;2023-03-01T06:40:44;46.20;;;28.57;;
58412;SDS011;44209;52.952;6.790;2023-03-01T06:43:10;45.63;;;28.73;;
58412;SDS011;44209;52.952;6.790;2023-03-01T06:45:36;48.10;;;28.67;;
58412;SDS011;44209;52.952;6.790;2023-03-01T06:48:03;47.27;;;27.83;;
58412;SDS011;44209;52.952;6.790;2023-03-01T06:50:30;46.83;;;26.83;;
58412;SDS011;44209;52.952;6.790;2023-03-01T06:52:56;55.97;;;33.40;;
58412;SDS011;44209;52.952;6.790;2023-03-01T06:55:22;69.97;;;39.60;;
58412;SDS011;44209;52.952;6.790;2023-03-01T06:57:48;65.10;;;36.30;;
58412;SDS011;44209;52.952;6.790;2023-03-01T07:00:14;80.00;;;43.63;;
58412;SDS011;44209;52.952;6.790;2023-03-01T07:02:40;73.07;;;41.20;;
58412;SDS011;44209;52.952;6.790;2023-03-01T07:05:05;71.43;;;41.53;;
58412;SDS011;44209;52.952;6.790;2023-03-01T07:07:31;67.10;;;38.70;;
58412;SDS011;44209;52.952;6.790;2023-03-01T07:10:00;67.63;;;40.40;;
58412;SDS011;44209;52.952;6.790;2023-03-01T07:12:25;67.27;;;38.83;;
58412;SDS011;44209;52.952;6.790;2023-03-01T07:14:51;68.17;;;39.70;;
58412;SDS011;44209;52.952;6.790;2023-03-01T07:17:17;74.10;;;39.40;;
58412;SDS011;44209;52.952;6.790;2023-03-01T07:19:43;65.63;;;37.60;;
58412;SDS011;44209;52.952;6.790;2023-03-01T07:22:10;65.90;;;39.20;;
58412;SDS011;44209;52.952;6.790;2023-03-01T07:24:35;65.93;;;36.57;;
58412;SDS011;44209;52.952;6.790;2023-03-01T07:27:01;62.77;;;35.10;;
58412;SDS011;44209;52.952;6.790;2023-03-01T07:29:27;63.07;;;36.53;;
58412;SDS011;44209;52.952;6.790;2023-03-01T07:31:53;61.53;;;36.03;;
58412;SDS011;44209;52.952;6.790;2023-03-01T07:34:19;59.30;;;36.80;;
58412;SDS011;44209;52.952;6.790;2023-03-01T07:36:45;64.40;;;35.53;;
58412;SDS011;44209;52.952;6.790;2023-03-01T07:39:11;65.57;;;36.80;;
58412;SDS011;44209;52.952;6.790;2023-03-01T07:41:37;71.03;;;38.93;;
58412;SDS011;44209;52.952;6.790;2023-03-01T07:44:03;69.33;;;40.10;;
58412;SDS011;44209;52.952;6.790;2023-03-01T07:46:29;60.67;;;37.33;;
58412;SDS011;44209;52.952;6.790;2023-03-01T07:48:54;60.03;;;36.50;;
58412;SDS011;44209;52.952;6.790;2023-03-01T07:51:20;64.43;;;39.57;;
58412;SDS011;44209;52.952;6.790;2023-03-01T07:53:46;64.37;;;40.70;;
58412;SDS011;44209;52.952;6.790;2023-03-01T07:56:13;66.87;;;40.03;;
58412;SDS011;44209;52.952;6.790;2023-03-01T07:58:42;69.30;;;40.50;;
58412;SDS011;44209;52.952;6.790;2023-03-01T08:01:11;66.10;;;39.63;;
58412;SDS011;44209;52.952;6.790;2023-03-01T08:03:39;74.10;;;44.10;;
58412;SDS011;44209;52.952;6.790;2023-03-01T08:06:05;76.37;;;46.43;;
58412;SDS011;44209;52.952;6.790;2023-03-01T08:08:33;81.33;;;47.70;;
58412;SDS011;44209;52.952;6.790;2023-03-01T08:10:59;77.63;;;46.73;;
58412;SDS011;44209;52.952;6.790;2023-03-01T08:13:26;77.10;;;47.57;;
58412;SDS011;44209;52.952;6.790;2023-03-01T08:15:52;78.10;;;48.53;;
58412;SDS011;44209;52.952;6.790;2023-03-01T08:18:18;83.20;;;46.87;;
58412;SDS011;44209;52.952;6.790;2023-03-01T08:20:45;76.90;;;47.53;;
58412;SDS011;44209;52.952;6.790;2023-03-01T08:23:11;73.80;;;46.73;;
58412;SDS011;44209;52.952;6.790;2023-03-01T08:25:37;70.83;;;46.00;;
58412;SDS011;44209;52.952;6.790;2023-03-01T08:28:03;71.07;;;48.90;;
58412;SDS011;44209;52.952;6.790;2023-03-01T08:30:30;70.17;;;44.87;;
58412;SDS011;44209;52.952;6.790;2023-03-01T08:32:55;70.23;;;46.63;;
58412;SDS011;44209;52.952;6.790;2023-03-01T08:35:21;78.30;;;50.13;;
58412;SDS011;44209;52.952;6.790;2023-03-01T08:37:47;80.43;;;49.33;;
58412;SDS011;44209;52.952;6.790;2023-03-01T08:40:13;76.17;;;47.60;;
58412;SDS011;44209;52.952;6.790;2023-03-01T08:42:40;76.40;;;48.63;;
58412;SDS011;44209;52.952;6.790;2023-03-01T08:45:08;71.80;;;46.23;;
58412;SDS011;44209;52.952;6.790;2023-03-01T08:47:34;77.73;;;47.33;;
58412;SDS011;44209;52.952;6.790;2023-03-01T08:50:00;73.30;;;46.63;;
58412;SDS011;44209;52.952;6.790;2023-03-01T08:52:26;73.67;;;45.70;;
58412;SDS011;44209;52.952;6.790;2023-03-01T08:54:52;71.40;;;45.03;;
58412;SDS011;44209;52.952;6.790;2023-03-01T08:57:18;72.87;;;43.93;;
58412;SDS011;44209;52.952;6.790;2023-03-01T08:59:43;68.73;;;43.17;;
58412;SDS011;44209;52.952;6.790;2023-03-01T09:02:13;67.93;;;42.63;;
58412;SDS011;44209;52.952;6.790;2023-03-01T09:04:41;73.60;;;45.15;;
58412;SDS011;44209;52.952;6.790;2023-03-01T09:07:07;73.03;;;45.63;;
58412;SDS011;44209;52.952;6.790;2023-03-01T09:09:33;73.97;;;44.47;;
58412;SDS011;44209;52.952;6.790;2023-03-01T09:11:59;73.97;;;44.93;;
58412;SDS011;44209;52.952;6.790;2023-03-01T09:14:25;66.93;;;42.27;;
58412;SDS011;44209;52.952;6.790;2023-03-01T09:16:51;71.40;;;44.37;;
58412;SDS011;44209;52.952;6.790;2023-03-01T09:19:17;66.33;;;41.83;;
58412;SDS011;44209;52.952;6.790;2023-03-01T09:21:42;67.77;;;42.33;;
58412;SDS011;44209;52.952;6.790;2023-03-01T09:24:18;64.23;;;40.57;;
58412;SDS011;44209;52.952;6.790;2023-03-01T09:26:47;63.00;;;39.73;;
58412;SDS011;44209;52.952;6.790;2023-03-01T09:29:14;65.30;;;40.77;;
58412;SDS011;44209;52.952;6.790;2023-03-01T09:31:40;64.57;;;41.47;;
58412;SDS011;44209;52.952;6.790;2023-03-01T09:34:07;62.37;;;39.97;;
58412;SDS011;44209;52.952;6.790;2023-03-01T09:36:33;62.13;;;40.67;;
58412;SDS011;44209;52.952;6.790;2023-03-01T09:38:59;60.17;;;38.00;;
58412;SDS011;44209;52.952;6.790;2023-03-01T09:44:01;51.77;;;34.67;;
58412;SDS011;44209;52.952;6.790;2023-03-01T09:46:37;46.67;;;30.93;;
58412;SDS011;44209;52.952;6.790;2023-03-01T09:49:10;46.55;;;27.63;;
58412;SDS011;44209;52.952;6.790;2023-03-01T09:51:41;40.50;;;27.13;;
58412;SDS011;44209;52.952;6.790;2023-03-01T09:54:08;39.47;;;24.80;;
58412;SDS011;44209;52.952;6.790;2023-03-01T09:56:40;34.80;;;22.97;;
58412;SDS011;44209;52.952;6.790;2023-03-01T10:01:44;36.07;;;24.17;;
58412;SDS011;44209;52.952;6.790;2023-03-01T10:06:54;28.83;;;19.67;;
58412;SDS011;44209;52.952;6.790;2023-03-01T10:09:29;26.63;;;16.47;;
58412;SDS011;44209;52.952;6.790;2023-03-01T10:11:59;24.35;;;16.70;;
58412;SDS011;44209;52.952;6.790;2023-03-01T10:14:30;19.23;;;13.83;;
58412;SDS011;44209;52.952;6.790;2023-03-01T10:17:18;27.73;;;19.77;;
58412;SDS011;44209;52.952;6.790;2023-03-01T10:20:17;20.17;;;14.77;;
58412;SDS011;44209;52.952;6.790;2023-03-01T10:22:43;30.33;;;19.03;;
58412;SDS011;44209;52.952;6.790;2023-03-01T10:25:15;22.25;;;15.07;;
58412;SDS011;44209;52.952;6.790;2023-03-01T10:27:51;18.30;;;12.10;;
58412;SDS011;44209;52.952;6.790;2023-03-01T10:30:22;20.73;;;14.07;;
58412;SDS011;44209;52.952;6.790;2023-03-01T10:32:59;20.30;;;13.13;;
58412;SDS011;44209;52.952;6.790;2023-03-01T10:35:27;25.67;;;18.73;;
58412;SDS011;44209;52.952;6.790;2023-03-01T10:40:23;26.23;;;19.03;;
58412;SDS011;44209;52.952;6.790;2023-03-01T10:42:49;18.43;;;13.40;;
58412;SDS011;44209;52.952;6.790;2023-03-01T10:50:42;22.40;;;15.33;;
58412;SDS011;44209;52.952;6.790;2023-03-01T10:53:23;25.47;;;17.30;;
58412;SDS011;44209;52.952;6.790;2023-03-01T10:56:12;20.80;;;14.87;;
58412;SDS011;44209;52.952;6.790;2023-03-01T10:58:40;26.83;;;18.70;;
58412;SDS011;44209;52.952;6.790;2023-03-01T11:01:26;30.73;;;22.10;;
58412;SDS011;44209;52.952;6.790;2023-03-01T11:06:34;25.40;;;18.03;;
58412;SDS011;44209;52.952;6.790;2023-03-01T11:09:14;36.23;;;22.37;;
58412;SDS011;44209;52.952;6.790;2023-03-01T11:11:44;20.83;;;13.73;;
58412;SDS011;44209;52.952;6.790;2023-03-01T11:16:48;20.63;;;14.20;;
58412;SDS011;44209;52.952;6.790;2023-03-01T11:19:23;16.13;;;11.53;;
58412;SDS011;44209;52.952;6.790;2023-03-01T11:22:05;16.83;;;11.17;;
58412;SDS011;44209;52.952;6.790;2023-03-01T11:24:44;14.55;;;10.88;;
58412;SDS011;44209;52.952;6.790;2023-03-01T11:27:20;18.53;;;12.87;;
58412;SDS011;44209;52.952;6.790;2023-03-01T11:29:54;18.37;;;12.43;;
58412;SDS011;44209;52.952;6.790;2023-03-01T11:32:29;17.73;;;11.23;;
58412;SDS011;44209;52.952;6.790;2023-03-01T11:35:10;17.60;;;12.20;;
58412;SDS011;44209;52.952;6.790;2023-03-01T11:37:52;23.30;;;15.33;;
58412;SDS011;44209;52.952;6.790;2023-03-01T11:46:23;22.17;;;15.43;;
58412;SDS011;44209;52.952;6.790;2023-03-01T11:49:40;23.43;;;15.17;;
58412;SDS011;44209;52.952;6.790;2023-03-01T12:03:31;27.20;;;17.47;;
58412;SDS011;44209;52.952;6.790;2023-03-01T12:09:19;20.37;;;15.13;;
58412;SDS011;44209;52.952;6.790;2023-03-01T12:20:21;24.07;;;16.30;;
58412;SDS011;44209;52.952;6.790;2023-03-01T12:28:10;22.17;;;14.83;;
58412;SDS011;44209;52.952;6.790;2023-03-01T12:33:22;23.07;;;15.60;;
58412;SDS011;44209;52.952;6.790;2023-03-01T12:36:09;25.45;;;15.95;;
58412;SDS011;44209;52.952;6.790;2023-03-01T12:50:03;24.37;;;16.67;;
58412;SDS011;44209;52.952;6.790;2023-03-01T12:52:41;26.20;;;16.57;;
58412;SDS011;44209;52.952;6.790;2023-03-01T12:55:18;23.87;;;15.70;;
58412;SDS011;44209;52.952;6.790;2023-03-01T13:01:02;23.53;;;15.13;;
58412;SDS011;44209;52.952;6.790;2023-03-01T13:17:55;19.37;;;12.73;;
58412;SDS011;44209;52.952;6.790;2023-03-01T13:20:27;17.77;;;12.53;;
58412;SDS011;44209;52.952;6.790;2023-03-01T13:23:02;17.58;;;12.38;;
58412;SDS011;44209;52.952;6.790;2023-03-01T13:25:34;18.50;;;12.87;;
58412;SDS011;44209;52.952;6.790;2023-03-01T13:28:35;17.77;;;12.47;;
58412;SDS011;44209;52.952;6.790;2023-03-01T13:31:01;18.73;;;12.13;;
58412;SDS011;44209;52.952;6.790;2023-03-01T13:35:55;16.27;;;11.97;;
58412;SDS011;44209;52.952;6.790;2023-03-01T13:41:11;16.33;;;11.57;;
58412;SDS011;44209;52.952;6.790;2023-03-01T13:43:43;19.10;;;13.07;;
58412;SDS011;44209;52.952;6.790;2023-03-01T13:46:19;20.07;;;13.60;;
58412;SDS011;44209;52.952;6.790;2023-03-01T13:48:49;17.90;;;12.80;;
58412;SDS011;44209;52.952;6.790;2023-03-01T13:51:20;18.67;;;13.63;;
58412;SDS011;44209;52.952;6.790;2023-03-01T13:53:50;19.13;;;12.90;;
58412;SDS011;44209;52.952;6.790;2023-03-01T13:56:24;16.93;;;12.60;;
58412;SDS011;44209;52.952;6.790;2023-03-01T13:59:00;17.30;;;11.83;;
58412;SDS011;44209;52.952;6.790;2023-03-01T14:01:33;18.57;;;12.90;;
58412;SDS011;44209;52.952;6.790;2023-03-01T14:04:00;18.38;;;12.95;;
58412;SDS011;44209;52.952;6.790;2023-03-01T14:06:28;15.90;;;11.97;;
58412;SDS011;44209;52.952;6.790;2023-03-01T14:09:04;21.00;;;13.23;;
58412;SDS011;44209;52.952;6.790;2023-03-01T14:14:48;16.77;;;12.10;;
58412;SDS011;44209;52.952;6.790;2023-03-01T14:19:57;16.37;;;12.17;;
58412;SDS011;44209;52.952;6.790;2023-03-01T14:22:30;16.77;;;11.23;;
58412;SDS011;44209;52.952;6.790;2023-03-01T14:25:03;15.97;;;11.17;;
58412;SDS011;44209;52.952;6.790;2023-03-01T14:27:41;16.43;;;12.40;;
58412;SDS011;44209;52.952;6.790;2023-03-01T14:30:15;16.47;;;11.63;;
58412;SDS011;44209;52.952;6.790;2023-03-01T14:32:58;16.07;;;11.80;;
58412;SDS011;44209;52.952;6.790;2023-03-01T14:35:33;17.67;;;12.17;;
58412;SDS011;44209;52.952;6.790;2023-03-01T14:40:28;18.37;;;12.97;;
58412;SDS011;44209;52.952;6.790;2023-03-01T14:43:00;16.77;;;12.80;;
58412;SDS011;44209;52.952;6.790;2023-03-01T14:45:32;18.97;;;12.63;;
58412;SDS011;44209;52.952;6.790;2023-03-01T14:47:59;18.90;;;12.60;;
58412;SDS011;44209;52.952;6.790;2023-03-01T14:50:28;17.13;;;12.53;;
58412;SDS011;44209;52.952;6.790;2023-03-01T14:52:59;17.00;;;13.07;;
58412;SDS011;44209;52.952;6.790;2023-03-01T14:55:29;19.63;;;13.57;;
58412;SDS011;44209;52.952;6.790;2023-03-01T14:58:05;16.43;;;12.60;;
58412;SDS011;44209;52.952;6.790;2023-03-01T15:00:36;16.23;;;12.27;;
58412;SDS011;44209;52.952;6.790;2023-03-01T15:03:12;18.43;;;12.30;;
58412;SDS011;44209;52.952;6.790;2023-03-01T15:05:42;17.30;;;12.93;;
58412;SDS011;44209;52.952;6.790;2023-03-01T15:08:13;18.23;;;13.27;;
58412;SDS011;44209;52.952;6.790;2023-03-01T15:13:49;17.37;;;12.37;;
58412;SDS011;44209;52.952;6.790;2023-03-01T15:16:20;17.90;;;12.57;;
58412;SDS011;44209;52.952;6.790;2023-03-01T15:18:56;17.50;;;12.60;;
58412;SDS011;44209;52.952;6.790;2023-03-01T15:21:26;21.00;;;13.77;;
58412;SDS011;44209;52.952;6.790;2023-03-01T15:24:07;18.30;;;13.07;;
58412;SDS011;44209;52.952;6.790;2023-03-01T15:26:50;21.52;;;14.02;;
58412;SDS011;44209;52.952;6.790;2023-03-01T15:29:31;19.30;;;13.40;;
58412;SDS011;44209;52.952;6.790;2023-03-01T15:31:59;17.97;;;13.27;;
58412;SDS011;44209;52.952;6.790;2023-03-01T15:34:46;18.83;;;13.87;;
58412;SDS011;44209;52.952;6.790;2023-03-01T15:40:20;25.13;;;13.93;;
58412;SDS011;44209;52.952;6.790;2023-03-01T15:42:56;21.37;;;13.27;;
58412;SDS011;44209;52.952;6.790;2023-03-01T15:45:24;20.83;;;13.37;;
58412;SDS011;44209;52.952;6.790;2023-03-01T15:48:13;22.67;;;15.00;;
58412;SDS011;44209;52.952;6.790;2023-03-01T15:50:42;20.63;;;14.67;;
58412;SDS011;44209;52.952;6.790;2023-03-01T15:53:12;21.30;;;14.73;;
58412;SDS011;44209;52.952;6.790;2023-03-01T15:55:39;25.30;;;15.67;;
58412;SDS011;44209;52.952;6.790;2023-03-01T15:58:08;22.37;;;14.93;;
58412;SDS011;44209;52.952;6.790;2023-03-01T16:00:37;22.35;;;15.25;;
58412;SDS011;44209;52.952;6.790;2023-03-01T16:03:04;22.10;;;15.57;;
58412;SDS011;44209;52.952;6.790;2023-03-01T16:05:31;24.90;;;16.33;;
58412;SDS011;44209;52.952;6.790;2023-03-01T16:07:59;23.50;;;16.40;;
58412;SDS011;44209;52.952;6.790;2023-03-01T16:10:26;23.10;;;16.53;;
58412;SDS011;44209;52.952;6.790;2023-03-01T16:12:52;24.63;;;15.73;;
58412;SDS011;44209;52.952;6.790;2023-03-01T16:15:23;24.00;;;16.17;;
58412;SDS011;44209;52.952;6.790;2023-03-01T16:17:53;26.43;;;16.63;;
58412;SDS011;44209;52.952;6.790;2023-03-01T16:20:19;22.67;;;15.80;;
58412;SDS011;44209;52.952;6.790;2023-03-01T16:22:45;24.10;;;15.93;;
58412;SDS011;44209;52.952;6.790;2023-03-01T16:25:12;23.43;;;15.90;;
58412;SDS011;44209;52.952;6.790;2023-03-01T16:27:43;24.73;;;17.13;;
58412;SDS011;44209;52.952;6.790;2023-03-01T16:30:14;25.13;;;16.47;;
58412;SDS011;44209;52.952;6.790;2023-03-01T16:32:43;22.50;;;15.80;;
58412;SDS011;44209;52.952;6.790;2023-03-01T16:35:10;22.97;;;15.50;;
58412;SDS011;44209;52.952;6.790;2023-03-01T16:37:38;24.93;;;17.33;;
58412;SDS011;44209;52.952;6.790;2023-03-01T16:40:05;23.90;;;17.23;;
58412;SDS011;44209;52.952;6.790;2023-03-01T16:42:35;25.73;;;17.33;;